Touristville, Kentucky
Current Conditions -  °F | °C
As of 12:31 AM on Monday 20 Oct 2014 (Local Time) from KEKQ Reporting Station
Haze Haze  
Wind Chill: 41°   Ceiling: Unl
Heat Index: 41°   Visibility: 1.2mi
Dew Point: 41°   Wind: 0mph
Humidity: 100%   Direction: NA
Pressure: 30.1"   Gusts: NA
Location:  36.8129°N, 84.8215°W
Report Text: KEKQ 200431Z AUTO 00000KT 1 1/4SM BR CLR 05/05 A3010 RMK AO2
Loading
Personal Weather Stations






























Interactive Weather Map
Tropical Storm Tracking
New forecast layout! Learn more

10-Day Weather Forecast

Advertisements
Track Severe Weather on mobile